Time;durP1;ratioP1;P1;durP2;ratioP2;P2;SDS_P1;SDS_P2;PMS_P1;PMS_P2;Temp;Humidity;BMP_temperature;BMP_pressure;BME280_temperature;BME280_humidity;BME280_pressure;Samples;Min_cycle;Max_cycle;Signal;HPM_P1;HPM_P2
2022/06/26 00:00:04;;;;;;;12.10;11.20;;;21.10;99.90;;;;;;5020916;28;20502;-68
2022/06/26 00:02:53;;;;;;;11.67;10.77;;;21.00;99.90;;;;;;5017531;28;20565;-68
2022/06/26 00:05:41;;;;;;;12.60;11.70;;;21.00;99.90;;;;;;5017891;28;20861;-68
2022/06/26 00:08:29;;;;;;;11.23;10.33;;;21.10;99.90;;;;;;5019665;28;20545;-68
2022/06/26 00:11:18;;;;;;;11.47;10.67;;;21.00;99.90;;;;;;5016861;28;20514;-68
2022/06/26 00:14:08;;;;;;;12.17;11.27;;;21.00;99.90;;;;;;5019261;28;20513;-68
2022/06/26 00:16:59;;;;;;;12.00;11.10;;;20.90;99.90;;;;;;5008777;28;20575;-68
2022/06/26 00:19:47;;;;;;;12.27;11.37;;;21.00;99.90;;;;;;5017810;28;21054;-68
2022/06/26 00:22:35;;;;;;;12.37;11.43;;;20.90;99.90;;;;;;5018488;28;20932;-68
2022/06/26 00:25:26;;;;;;;12.20;11.37;;;20.90;99.90;;;;;;5014346;28;20479;-68
2022/06/26 00:28:15;;;;;;;12.53;11.63;;;20.90;99.90;;;;;;5013489;28;20627;-68
2022/06/26 00:31:04;;;;;;;12.27;11.40;;;20.90;99.90;;;;;;5017891;28;20516;-68
2022/06/26 00:33:52;;;;;;;11.30;10.60;;;20.90;99.90;;;;;;5017434;28;20479;-68
2022/06/26 00:36:44;;;;;;;10.87;10.17;;;20.90;99.90;;;;;;5013654;28;20678;-68
2022/06/26 00:39:32;;;;;;;11.57;10.67;;;20.90;99.90;;;;;;5015297;28;21451;-68
2022/06/26 00:42:21;;;;;;;12.30;11.47;;;20.90;99.90;;;;;;5016653;28;20550;-68
2022/06/26 00:45:12;;;;;;;12.07;11.27;;;20.90;99.90;;;;;;5018994;28;20507;-68
2022/06/26 00:48:02;;;;;;;12.10;11.10;;;20.90;99.90;;;;;;5018311;28;21350;-68
2022/06/26 00:50:58;;;;;;;12.63;11.73;;;20.90;99.90;;;;;;5023528;28;20455;-68
2022/06/26 00:53:47;;;;;;;12.07;11.27;;;20.80;99.90;;;;;;5021641;28;20485;-69
2022/06/26 00:56:38;;;;;;;13.10;12.20;;;20.80;99.90;;;;;;5018171;28;20486;-68
2022/06/26 00:59:26;;;;;;;12.90;11.97;;;20.80;99.90;;;;;;5019865;28;20542;-68
2022/06/26 01:02:15;;;;;;;12.40;11.60;;;20.80;99.90;;;;;;5021835;28;20602;-68
2022/06/26 01:05:06;;;;;;;12.07;11.07;;;20.80;99.90;;;;;;5020034;28;20479;-68
2022/06/26 01:07:55;;;;;;;11.93;11.03;;;20.80;99.90;;;;;;5016511;28;21021;-68
2022/06/26 01:10:48;;;;;;;12.47;11.67;;;20.80;99.90;;;;;;5021274;28;20578;-68
2022/06/26 01:13:37;;;;;;;13.33;12.33;;;20.80;99.90;;;;;;5019136;28;20471;-68
2022/06/26 01:16:26;;;;;;;12.97;12.07;;;20.80;99.90;;;;;;5018107;28;20999;-68
2022/06/26 01:19:18;;;;;;;14.17;13.17;;;20.70;99.90;;;;;;5021729;28;20470;-68
2022/06/26 01:22:11;;;;;;;12.77;11.77;;;20.70;99.90;;;;;;5024068;28;20455;-68
2022/06/26 01:25:01;;;;;;;12.40;11.60;;;20.70;99.90;;;;;;5023456;28;20525;-68
2022/06/26 01:27:49;;;;;;;13.13;12.13;;;20.70;99.90;;;;;;5022368;28;21014;-68
2022/06/26 01:30:37;;;;;;;12.70;11.80;;;20.70;99.90;;;;;;5023549;28;20598;-68
2022/06/26 01:33:26;;;;;;;12.63;11.70;;;20.70;99.90;;;;;;5021993;28;20649;-68
2022/06/26 01:36:14;;;;;;;13.37;12.37;;;20.60;99.90;;;;;;5023808;28;20475;-68
2022/06/26 01:39:03;;;;;;;14.43;13.30;;;20.60;99.90;;;;;;5020728;28;20609;-68
2022/06/26 01:41:53;;;;;;;14.17;13.20;;;20.60;99.90;;;;;;5017152;28;20478;-68
2022/06/26 01:44:41;;;;;;;14.00;13.00;;;20.60;99.90;;;;;;5018648;28;20903;-68
2022/06/26 01:47:31;;;;;;;14.70;13.70;;;20.60;99.90;;;;;;5020206;28;20538;-68
2022/06/26 01:50:26;;;;;;;14.07;12.97;;;20.60;99.90;;;;;;5017857;28;20451;-69
2022/06/26 01:53:16;;;;;;;13.40;12.40;;;20.60;99.90;;;;;;5019363;28;20456;-68
2022/06/26 01:56:05;;;;;;;13.80;12.80;;;20.60;99.90;;;;;;5019428;28;20483;-68
2022/06/26 01:58:59;;;;;;;13.43;12.50;;;20.60;99.90;;;;;;5017394;28;20467;-68
2022/06/26 02:01:47;;;;;;;13.20;12.37;;;20.60;99.90;;;;;;5023864;28;20535;-68
2022/06/26 02:04:37;;;;;;;14.00;13.00;;;20.60;99.90;;;;;;5019867;28;21265;-68
2022/06/26 02:07:26;;;;;;;12.07;11.17;;;20.60;99.90;;;;;;5017758;28;20455;-68
2022/06/26 02:13:37;;;;;;;14.03;13.03;;;20.60;99.90;;;;;;5008811;28;20586;-68
2022/06/26 02:16:27;;;;;;;13.10;12.30;;;20.60;99.90;;;;;;5020568;28;20482;-68
2022/06/26 02:19:20;;;;;;;13.40;12.40;;;20.60;99.90;;;;;;5022520;28;20494;-68
2022/06/26 02:22:08;;;;;;;13.97;12.97;;;20.60;99.90;;;;;;5020446;28;20605;-68
2022/06/26 02:25:00;;;;;;;12.80;12.00;;;20.60;99.90;;;;;;5014779;28;20529;-68
2022/06/26 02:27:51;;;;;;;12.53;11.73;;;20.60;99.90;;;;;;5020613;28;20535;-68
2022/06/26 02:30:40;;;;;;;13.57;12.47;;;20.60;99.90;;;;;;5023085;28;20482;-68
2022/06/26 02:33:32;;;;;;;13.57;12.57;;;20.60;99.90;;;;;;5019931;28;20456;-68
2022/06/26 02:36:21;;;;;;;13.70;12.80;;;20.60;99.90;;;;;;5018074;28;20475;-68
2022/06/26 02:39:11;;;;;;;14.17;13.17;;;20.60;99.90;;;;;;5018625;28;21091;-68
2022/06/26 02:41:59;;;;;;;13.90;12.90;;;20.60;99.90;;;;;;5019383;28;20885;-68
2022/06/26 02:44:48;;;;;;;14.47;13.37;;;20.60;99.90;;;;;;5016403;28;20537;-68
2022/06/26 02:47:38;;;;;;;13.37;12.43;;;20.50;99.90;;;;;;5022804;28;20547;-68
2022/06/26 02:50:28;;;;;;;13.43;12.53;;;20.50;99.90;;;;;;5018362;28;20448;-68
2022/06/26 02:53:19;;;;;;;14.57;13.60;;;20.50;99.90;;;;;;5020605;28;20452;-68
2022/06/26 02:56:08;;;;;;;14.87;13.87;;;20.50;99.90;;;;;;5017872;28;21043;-68
2022/06/26 02:58:59;;;;;;;15.10;14.00;;;20.50;99.90;;;;;;5018603;28;21272;-68
2022/06/26 03:01:48;;;;;;;13.73;12.83;;;20.50;99.90;;;;;;5021569;28;20490;-68
2022/06/26 03:04:42;;;;;;;14.50;13.37;;;20.50;99.90;;;;;;5017194;28;21062;-68
2022/06/26 03:07:32;;;;;;;13.97;13.07;;;20.50;99.90;;;;;;5017265;28;20436;-68
2022/06/26 03:10:21;;;;;;;14.80;13.80;;;20.50;99.90;;;;;;5022489;28;20456;-68
2022/06/26 03:13:09;;;;;;;15.00;13.90;;;20.50;99.90;;;;;;5020061;28;20586;-68
2022/06/26 03:15:58;;;;;;;14.67;13.57;;;20.40;99.90;;;;;;5018175;28;21010;-68
2022/06/26 03:18:48;;;;;;;15.10;14.00;;;20.50;99.90;;;;;;5017180;28;20475;-68
2022/06/26 03:21:39;;;;;;;15.00;13.90;;;20.40;99.90;;;;;;5019356;28;20487;-68
2022/06/26 03:24:30;;;;;;;14.53;13.53;;;20.40;99.90;;;;;;5019579;28;20491;-68
2022/06/26 03:27:20;;;;;;;15.17;14.13;;;20.40;99.90;;;;;;5020054;28;20448;-68
2022/06/26 03:30:14;;;;;;;14.23;13.23;;;20.40;99.90;;;;;;5016104;28;20556;-68
2022/06/26 03:33:04;;;;;;;15.53;14.43;;;20.40;99.90;;;;;;5018724;28;20835;-68
2022/06/26 03:35:54;;;;;;;14.33;13.23;;;20.40;99.90;;;;;;5016847;28;20511;-68
2022/06/26 03:38:43;;;;;;;14.40;13.40;;;20.40;99.90;;;;;;5018205;28;20479;-68
2022/06/26 03:41:35;;;;;;;16.47;15.17;;;20.30;99.90;;;;;;5020231;28;20479;-68
2022/06/26 03:44:28;;;;;;;15.30;14.20;;;20.30;99.90;;;;;;5018463;28;20499;-68
2022/06/26 03:47:16;;;;;;;15.20;14.20;;;20.40;99.90;;;;;;5023196;28;20943;-68
2022/06/26 03:50:06;;;;;;;14.80;13.80;;;20.30;99.90;;;;;;5017512;28;20470;-69
2022/06/26 03:52:54;;;;;;;16.13;14.97;;;20.30;99.90;;;;;;5020706;28;20443;-68
2022/06/26 03:55:44;;;;;;;14.03;13.03;;;20.30;99.90;;;;;;5021601;28;20511;-69
2022/06/26 03:58:33;;;;;;;15.50;14.30;;;20.20;99.90;;;;;;5025437;28;20475;-68
2022/06/26 04:01:22;;;;;;;15.60;14.40;;;20.20;99.90;;;;;;5041597;28;20471;-68
2022/06/26 04:04:10;;;;;;;15.33;14.23;;;20.20;99.90;;;;;;5041336;28;20511;-68
2022/06/26 04:07:01;;;;;;;15.90;14.70;;;20.20;99.90;;;;;;5034697;28;20959;-68
2022/06/26 04:09:51;;;;;;;17.10;15.87;;;20.20;99.90;;;;;;5025302;28;20551;-68
2022/06/26 04:12:40;;;;;;;16.30;15.10;;;20.20;99.90;;;;;;5022230;28;20543;-68
2022/06/26 04:15:33;;;;;;;15.30;14.20;;;20.20;99.90;;;;;;5017834;28;20475;-68
2022/06/26 04:18:25;;;;;;;16.17;14.97;;;20.20;99.90;;;;;;5021081;28;20489;-68
2022/06/26 04:21:15;;;;;;;16.77;15.57;;;20.20;99.90;;;;;;5020724;28;20459;-68
2022/06/26 04:24:04;;;;;;;16.40;15.20;;;20.20;99.90;;;;;;5018322;28;20482;-68
2022/06/26 04:26:54;;;;;;;16.63;15.43;;;20.20;99.90;;;;;;5022328;28;21069;-68
2022/06/26 04:29:42;;;;;;;16.60;15.40;;;20.20;99.90;;;;;;5023138;28;20440;-68
2022/06/26 04:32:31;;;;;;;16.30;15.00;;;20.20;99.90;;;;;;5025423;28;20530;-68
2022/06/26 04:35:28;;;;;;;16.13;15.03;;;20.20;99.90;;;;;;5026097;28;20483;-69
2022/06/26 04:38:16;;;;;;;16.40;15.30;;;20.20;99.90;;;;;;5023119;28;20568;-68
2022/06/26 04:44:12;;;;;;;16.40;15.20;;;20.20;99.90;;;;;;5026746;28;20497;-68
2022/06/26 04:47:00;;;;;;;16.63;15.40;;;20.20;99.90;;;;;;5019536;28;20459;-68
2022/06/26 04:49:54;;;;;;;16.27;15.17;;;20.20;99.90;;;;;;5019334;28;20467;-68
2022/06/26 04:52:47;;;;;;;16.47;15.27;;;20.20;99.90;;;;;;5027554;28;20471;-68
2022/06/26 04:55:35;;;;;;;16.13;14.70;;;20.30;99.90;;;;;;5025651;28;20622;-68
2022/06/26 04:58:23;;;;;;;16.27;15.20;;;20.30;99.90;;;;;;5023455;28;20621;-68
2022/06/26 05:01:12;;;;;;;17.17;15.77;;;20.30;99.90;;;;;;5022166;28;20494;-68
2022/06/26 05:04:03;;;;;;;16.03;14.93;;;20.40;99.90;;;;;;5020068;28;20560;-68
2022/06/26 05:06:52;;;;;;;16.60;15.33;;;20.40;99.90;;;;;;5015469;28;20451;-68
2022/06/26 05:09:40;;;;;;;15.03;14.03;;;20.40;99.90;;;;;;5018619;28;20452;-67
2022/06/26 05:12:33;;;;;;;15.67;14.40;;;20.50;99.90;;;;;;5021086;28;20467;-68
2022/06/26 05:15:23;;;;;;;16.60;15.27;;;20.50;99.90;;;;;;5019138;28;20586;-67
2022/06/26 05:18:11;;;;;;;16.20;15.07;;;20.60;99.90;;;;;;5020453;28;20479;-67
2022/06/26 05:21:00;;;;;;;16.00;14.90;;;20.60;99.90;;;;;;5018096;28;20584;-68
2022/06/26 05:23:49;;;;;;;16.67;15.40;;;20.60;99.90;;;;;;5017182;28;20492;-68
2022/06/26 05:26:39;;;;;;;16.10;15.00;;;20.70;99.90;;;;;;5022123;28;21038;-68
2022/06/26 05:29:27;;;;;;;16.03;14.73;;;20.70;99.90;;;;;;5011432;28;20547;-68
2022/06/26 05:32:17;;;;;;;15.33;14.23;;;20.80;99.90;;;;;;5000046;28;20552;-68
2022/06/26 05:35:09;;;;;;;14.63;13.53;;;20.80;99.90;;;;;;5018327;28;20475;-68
2022/06/26 05:37:57;;;;;;;15.20;14.10;;;20.90;99.90;;;;;;5025944;28;20451;-68
2022/06/26 05:40:48;;;;;;;14.93;13.93;;;21.00;99.90;;;;;;5008473;28;20449;-69
2022/06/26 05:43:37;;;;;;;13.77;12.87;;;21.00;99.90;;;;;;5019548;28;20528;-68
2022/06/26 05:46:34;;;;;;;14.13;13.03;;;21.10;99.90;;;;;;5025534;28;20510;-68
2022/06/26 05:49:27;;;;;;;14.03;13.03;;;21.20;99.90;;;;;;5019211;28;20848;-68
2022/06/26 05:52:18;;;;;;;13.60;12.60;;;21.20;99.90;;;;;;5026447;28;20456;-68
2022/06/26 05:55:07;;;;;;;13.20;12.30;;;21.30;99.90;;;;;;5023780;28;20565;-68
2022/06/26 05:57:58;;;;;;;13.43;12.50;;;21.40;99.90;;;;;;5024757;28;20549;-68
2022/06/26 06:00:47;;;;;;;13.10;12.30;;;21.50;99.90;;;;;;5021296;28;20546;-69
2022/06/26 06:03:38;;;;;;;13.83;12.93;;;21.60;99.90;;;;;;5009310;28;20575;-69
2022/06/26 06:06:28;;;;;;;12.83;11.93;;;21.70;99.90;;;;;;5010688;28;20487;-68
2022/06/26 06:09:16;;;;;;;12.20;11.40;;;21.70;99.90;;;;;;5024244;28;20448;-68
2022/06/26 06:12:06;;;;;;;11.30;10.50;;;21.80;99.90;;;;;;5008460;28;20456;-68
2022/06/26 06:14:56;;;;;;;11.90;11.03;;;21.90;99.90;;;;;;5024242;28;21030;-68
2022/06/26 06:17:44;;;;;;;11.70;10.97;;;21.90;99.90;;;;;;5025423;28;20451;-69
2022/06/26 06:20:33;;;;;;;11.90;11.07;;;21.90;99.90;;;;;;5019831;28;20537;-68
2022/06/26 06:23:21;;;;;;;11.50;10.60;;;22.00;99.90;;;;;;5026580;28;20495;-68
2022/06/26 06:26:09;;;;;;;10.90;10.20;;;22.10;99.90;;;;;;5026222;28;20947;-68
2022/06/26 06:28:58;;;;;;;11.93;11.13;;;22.10;99.90;;;;;;5025146;28;20451;-68
2022/06/26 06:31:47;;;;;;;11.73;10.90;;;22.10;99.90;;;;;;5026086;28;21144;-68
2022/06/26 06:34:35;;;;;;;10.70;10.00;;;22.20;99.90;;;;;;5021084;28;21045;-68
2022/06/26 06:37:24;;;;;;;11.57;10.83;;;22.20;99.90;;;;;;5019422;28;20495;-68
2022/06/26 06:40:14;;;;;;;11.90;11.10;;;22.20;99.90;;;;;;5023197;28;20570;-68
2022/06/26 06:43:02;;;;;;;11.73;11.03;;;22.30;99.90;;;;;;5023057;28;20483;-69
2022/06/26 06:45:52;;;;;;;11.00;10.20;;;22.30;99.90;;;;;;5024846;28;20478;-68
2022/06/26 06:48:42;;;;;;;11.27;10.57;;;22.40;99.90;;;;;;5025788;28;20452;-68
2022/06/26 06:51:30;;;;;;;11.40;10.50;;;22.40;99.90;;;;;;5024410;28;20451;-69
2022/06/26 06:54:18;;;;;;;10.70;10.00;;;22.50;99.90;;;;;;5023033;28;20480;-68
2022/06/26 06:57:07;;;;;;;11.70;10.80;;;22.50;99.90;;;;;;5023009;28;20505;-69
2022/06/26 06:59:55;;;;;;;10.10;9.50;;;22.60;99.90;;;;;;5018745;28;20615;-68
2022/06/26 07:02:43;;;;;;;10.47;9.73;;;22.70;99.90;;;;;;5024587;28;21010;-68
2022/06/26 07:05:33;;;;;;;11.40;10.60;;;22.70;99.90;;;;;;5026611;28;20570;-69
2022/06/26 07:08:22;;;;;;;10.27;9.57;;;22.80;99.90;;;;;;5022774;28;20507;-68
2022/06/26 07:11:10;;;;;;;10.50;9.80;;;22.90;99.90;;;;;;5016251;28;20614;-68
2022/06/26 07:13:58;;;;;;;10.33;9.70;;;23.00;99.90;;;;;;5023481;28;20551;-68
2022/06/26 07:16:47;;;;;;;9.27;8.67;;;23.00;99.90;;;;;;5025661;28;20448;-68
2022/06/26 07:19:36;;;;;;;9.27;8.67;;;23.20;99.90;;;;;;5022356;28;20646;-68
2022/06/26 07:22:27;;;;;;;9.33;8.73;;;23.30;99.90;;;;;;5022990;28;20769;-68
2022/06/26 07:25:15;;;;;;;9.30;8.70;;;23.40;99.90;;;;;;5023418;28;21102;-69
2022/06/26 07:28:03;;;;;;;8.87;8.37;;;23.50;99.90;;;;;;5021121;28;20918;-68
2022/06/26 07:30:52;;;;;;;9.90;9.13;;;23.60;99.90;;;;;;5026450;28;20513;-68
2022/06/26 07:36:48;;;;;;;9.43;8.83;;;23.70;99.90;;;;;;5021572;28;20613;-69
2022/06/26 07:39:38;;;;;;;8.67;8.17;;;23.80;99.90;;;;;;5025480;28;20828;-69
2022/06/26 07:42:26;;;;;;;8.60;8.10;;;23.90;99.90;;;;;;5020739;28;20561;-68
2022/06/26 07:45:14;;;;;;;8.83;8.30;;;24.00;99.90;;;;;;5016833;28;20506;-68
2022/06/26 07:48:03;;;;;;;9.80;9.20;;;24.10;99.90;;;;;;5019843;28;20464;-68
2022/06/26 07:50:51;;;;;;;10.00;9.30;;;24.20;99.90;;;;;;5022985;28;20543;-69
2022/06/26 07:53:39;;;;;;;9.63;8.93;;;24.20;99.90;;;;;;5017556;28;20586;-68
2022/06/26 07:56:29;;;;;;;10.13;9.43;;;24.30;99.90;;;;;;5017760;28;20688;-69
2022/06/26 07:59:17;;;;;;;10.00;9.40;;;24.40;99.90;;;;;;5019444;28;20557;-69
2022/06/26 08:02:06;;;;;;;9.63;8.83;;;24.40;99.90;;;;;;5020360;28;20657;-69
2022/06/26 08:04:54;;;;;;;10.40;9.70;;;24.50;99.90;;;;;;5023298;28;20483;-70
2022/06/26 08:07:42;;;;;;;10.20;9.60;;;24.60;99.90;;;;;;5027618;28;20638;-69
2022/06/26 08:10:30;;;;;;;9.73;9.07;;;24.70;99.90;;;;;;5027775;28;20574;-69
2022/06/26 08:13:20;;;;;;;8.47;7.80;;;24.80;99.90;;;;;;5023754;28;20525;-68
2022/06/26 08:16:08;;;;;;;8.40;7.90;;;24.80;99.90;;;;;;5019234;28;20507;-69
2022/06/26 08:18:57;;;;;;;7.90;7.40;;;24.90;99.90;;;;;;5028304;28;20447;-69
2022/06/26 08:22:03;;;;;;;8.00;7.40;;;25.00;99.90;;;;;;5030273;28;20454;-70
2022/06/26 08:24:51;;;;;;;8.73;8.13;;;25.20;99.90;;;;;;5026213;28;20463;-69
2022/06/26 08:27:40;;;;;;;8.70;8.10;;;25.30;99.90;;;;;;5029278;28;20494;-69
2022/06/26 08:30:29;;;;;;;7.87;7.40;;;25.40;99.90;;;;;;5022131;28;20610;-70
2022/06/26 08:33:20;;;;;;;6.30;5.80;;;25.50;99.90;;;;;;5024268;28;20573;-69
2022/06/26 08:36:08;;;;;;;5.67;5.27;;;25.60;99.90;;;;;;5021473;28;20574;-69
2022/06/26 08:38:56;;;;;;;4.90;4.60;;;25.70;99.90;;;;;;5024846;28;20491;-69
2022/06/26 08:41:46;;;;;;;4.30;4.00;;;25.80;99.90;;;;;;5024937;28;20550;-70
2022/06/26 08:44:36;;;;;;;3.90;3.70;;;25.90;99.90;;;;;;5021283;28;20759;-70
2022/06/26 08:47:27;;;;;;;5.57;5.20;;;25.90;99.90;;;;;;5027059;28;20602;-69
2022/06/26 08:50:16;;;;;;;5.10;4.70;;;26.00;99.90;;;;;;5019675;28;20990;-69
2022/06/26 08:53:04;;;;;;;5.07;4.67;;;26.10;99.90;;;;;;5021147;28;20452;-69
2022/06/26 08:55:53;;;;;;;4.80;4.50;;;26.10;99.90;;;;;;5025624;28;20625;-69
2022/06/26 08:58:42;;;;;;;4.83;4.57;;;26.10;99.90;;;;;;5026142;28;20506;-70
2022/06/26 09:01:33;;;;;;;4.50;4.10;;;26.10;99.90;;;;;;5021119;28;20792;-69
2022/06/26 09:04:23;;;;;;;4.87;4.57;;;26.20;99.90;;;;;;5026409;28;20479;-69
2022/06/26 09:07:11;;;;;;;4.90;4.60;;;26.20;99.90;;;;;;5021951;28;20535;-69
2022/06/26 09:10:10;;;;;;;4.60;4.30;;;26.20;99.90;;;;;;5027921;28;20513;-69
2022/06/26 09:12:58;;;;;;;4.63;4.23;;;26.30;99.90;;;;;;5023429;28;21133;-69
2022/06/26 09:15:50;;;;;;;4.37;4.17;;;26.30;99.90;;;;;;5019195;28;20720;-69
2022/06/26 09:18:40;;;;;;;4.47;4.17;;;26.30;99.90;;;;;;5026578;28;20463;-69
2022/06/26 09:21:29;;;;;;;4.43;4.20;;;26.30;99.90;;;;;;5023586;28;20590;-69
2022/06/26 09:24:19;;;;;;;4.97;4.77;;;26.30;99.90;;;;;;5021181;28;20581;-69
2022/06/26 09:27:14;;;;;;;5.03;4.63;;;26.30;99.90;;;;;;5027397;28;20633;-69
2022/06/26 09:30:02;;;;;;;4.90;4.70;;;26.40;99.90;;;;;;5024703;28;20471;-69
2022/06/26 09:32:53;;;;;;;5.00;4.70;;;26.40;99.90;;;;;;5020453;28;21147;-69
2022/06/26 09:35:42;;;;;;;5.27;4.97;;;26.40;99.90;;;;;;5020849;28;20565;-70
2022/06/26 09:38:33;;;;;;;4.70;4.40;;;26.40;99.90;;;;;;5019776;28;20531;-69
2022/06/26 09:41:30;;;;;;;5.37;5.07;;;26.50;99.90;;;;;;5022283;28;20492;-70
2022/06/26 09:44:19;;;;;;;5.53;5.13;;;26.60;99.90;;;;;;5024608;28;20471;-69
2022/06/26 09:47:18;;;;;;;5.77;5.37;;;26.70;99.90;;;;;;5020524;28;20449;-69
2022/06/26 09:50:08;;;;;;;5.40;5.10;;;26.70;99.90;;;;;;5024907;28;20563;-69
2022/06/26 09:53:00;;;;;;;5.17;4.87;;;26.80;99.90;;;;;;5019803;28;20496;-69
2022/06/26 09:55:51;;;;;;;5.60;5.20;;;26.90;99.90;;;;;;5025432;28;20691;-69
2022/06/26 09:58:39;;;;;;;7.10;5.10;;;26.90;99.90;;;;;;5020589;28;20443;-69
2022/06/26 10:07:48;;;;;;;5.53;5.07;;;27.00;99.90;;;;;;5023049;28;20456;-69
2022/06/26 10:10:37;;;;;;;5.33;4.93;;;27.10;99.90;;;;;;5017693;28;20928;-70
2022/06/26 10:13:27;;;;;;;5.60;5.30;;;27.10;99.90;;;;;;5023706;28;21842;-70
2022/06/26 10:16:39;;;;;;;4.90;4.60;;;27.10;99.90;;;;;;5026380;28;21018;-70
2022/06/26 10:19:33;;;;;;;5.40;5.10;;;27.20;99.90;;;;;;5024076;28;20466;-70
2022/06/26 10:22:21;;;;;;;4.77;4.47;;;27.30;99.90;;;;;;5017475;28;20819;-70
2022/06/26 10:25:22;;;;;;;4.57;4.33;;;27.30;99.90;;;;;;5025647;28;20701;-68
2022/06/26 10:28:19;;;;;;;4.53;4.27;;;27.30;99.90;;;;;;5022167;28;20459;-70
2022/06/26 10:31:09;;;;;;;4.90;4.60;;;27.40;99.90;;;;;;5021792;28;20460;-68
2022/06/26 10:34:08;;;;;;;5.53;5.13;;;27.40;99.90;;;;;;5013609;28;20463;-70
2022/06/26 10:37:02;;;;;;;5.70;5.40;;;27.40;99.90;;;;;;5024954;28;21224;-68
2022/06/26 10:39:53;;;;;;;5.47;5.17;;;27.40;99.90;;;;;;5023203;28;20475;-69
2022/06/26 10:42:53;;;;;;;5.03;4.63;;;27.40;99.90;;;;;;5017005;28;20892;-68
2022/06/26 10:45:43;;;;;;;4.97;4.67;;;27.60;99.90;;;;;;5023121;28;20680;-70
2022/06/26 10:48:33;;;;;;;5.10;4.80;;;27.60;99.90;;;;;;5022400;28;20471;-70
2022/06/26 10:51:26;;;;;;;6.00;4.70;;;27.70;99.90;;;;;;5021662;28;20539;-70
2022/06/26 10:54:20;;;;;;;5.00;4.67;;;27.70;99.90;;;;;;5020661;28;20511;-70
2022/06/26 10:57:17;;;;;;;5.93;5.43;;;27.70;99.90;;;;;;5018981;28;20554;-69
2022/06/26 11:00:08;;;;;;;5.63;4.70;;;27.60;99.90;;;;;;5012559;28;20539;-70
2022/06/26 11:02:56;;;;;;;5.83;5.33;;;27.60;99.90;;;;;;5025162;28;20633;-69
2022/06/26 11:05:58;;;;;;;7.70;5.50;;;27.60;99.90;;;;;;5022287;28;21482;-69
2022/06/26 11:08:49;;;;;;;8.67;5.97;;;27.50;99.90;;;;;;5016706;28;20530;-69
2022/06/26 11:11:37;;;;;;;7.87;7.17;;;27.40;99.90;;;;;;5017267;28;20464;-69
2022/06/26 11:14:26;;;;;;;7.63;7.03;;;27.30;99.90;;;;;;5014564;28;20590;-69
2022/06/26 11:17:14;;;;;;;7.87;7.27;;;27.20;99.90;;;;;;5023675;28;20920;-69
2022/06/26 11:23:20;;;;;;;8.77;8.07;;;27.30;99.90;;;;;;5020312;28;20463;-68
2022/06/26 11:26:11;;;;;;;9.00;8.47;;;27.20;99.90;;;;;;5012209;28;20491;-69
2022/06/26 11:29:01;;;;;;;7.70;7.20;;;27.20;99.90;;;;;;5020746;28;20621;-68
2022/06/26 11:31:50;;;;;;;7.20;6.80;;;27.10;99.90;;;;;;5019021;28;20517;-68
2022/06/26 11:34:48;;;;;;;7.13;6.63;;;27.20;99.90;;;;;;5018515;28;20495;-69
2022/06/26 11:37:38;;;;;;;7.43;7.03;;;27.20;99.90;;;;;;5021627;28;20506;-69
2022/06/26 11:40:29;;;;;;;6.97;6.57;;;27.20;99.90;;;;;;5023912;28;20463;-69
2022/06/26 11:43:20;;;;;;;7.97;7.37;;;27.20;99.90;;;;;;5014499;28;20554;-69
2022/06/26 11:46:08;;;;;;;7.50;6.90;;;27.20;99.90;;;;;;5022458;28;20566;-69
2022/06/26 11:48:57;;;;;;;7.37;6.77;;;27.20;99.90;;;;;;5017590;28;20535;-69
2022/06/26 11:51:47;;;;;;;7.13;6.63;;;27.20;99.90;;;;;;5023149;28;21172;-68
2022/06/26 11:54:35;;;;;;;6.43;6.10;;;27.30;99.90;;;;;;5018286;28;20586;-68
2022/06/26 11:57:26;;;;;;;6.60;6.30;;;27.40;99.90;;;;;;5013754;28;20537;-69
2022/06/26 12:00:16;;;;;;;7.30;6.77;;;27.60;99.90;;;;;;5020491;28;20534;-68
2022/06/26 12:03:05;;;;;;;7.10;6.70;;;27.80;99.90;;;;;;5023674;28;21103;-70
2022/06/26 12:05:54;;;;;;;6.30;5.77;;;27.90;99.90;;;;;;5020068;28;20499;-68
2022/06/26 12:08:47;;;;;;;7.77;7.37;;;27.90;99.90;;;;;;5019403;28;20583;-69
2022/06/26 12:11:42;;;;;;;6.60;6.20;;;27.80;99.90;;;;;;5020376;28;20947;-69
2022/06/26 12:14:31;;;;;;;8.60;7.97;;;27.80;99.90;;;;;;5019528;28;20563;-69
2022/06/26 12:17:22;;;;;;;7.60;7.20;;;27.80;99.90;;;;;;5023787;28;20494;-69
2022/06/26 12:20:13;;;;;;;9.90;9.27;;;27.70;99.90;;;;;;5022948;28;20649;-68
2022/06/26 12:23:01;;;;;;;8.40;7.90;;;27.70;99.90;;;;;;5021012;28;20483;-69
2022/06/26 12:26:03;;;;;;;8.50;7.80;;;27.60;99.90;;;;;;5019088;28;20930;-69
2022/06/26 12:28:58;;;;;;;8.20;7.70;;;27.50;99.90;;;;;;5019599;28;20965;-69
2022/06/26 12:31:48;;;;;;;8.03;7.53;;;27.40;99.90;;;;;;5016619;28;20550;-69
2022/06/26 12:34:36;;;;;;;8.40;7.80;;;27.40;99.90;;;;;;5018666;28;20483;-69
2022/06/26 12:37:25;;;;;;;7.03;6.63;;;27.50;99.90;;;;;;5025123;28;20538;-69
2022/06/26 12:40:13;;;;;;;7.40;7.00;;;27.60;99.90;;;;;;5024366;28;20520;-69
2022/06/26 12:43:02;;;;;;;7.67;7.00;;;27.70;99.90;;;;;;5019124;28;20514;-68
2022/06/26 12:45:51;;;;;;;7.73;7.23;;;27.80;99.90;;;;;;5021760;28;20637;-68
2022/06/26 12:48:40;;;;;;;8.10;7.60;;;27.90;99.90;;;;;;5016096;28;20554;-68
2022/06/26 12:51:28;;;;;;;7.13;6.70;;;27.90;99.90;;;;;;5024558;28;20456;-68
2022/06/26 12:54:17;;;;;;;7.33;6.83;;;27.90;99.90;;;;;;5024653;28;20801;-68
2022/06/26 12:57:05;;;;;;;7.90;7.40;;;27.80;99.90;;;;;;5025108;28;20469;-68
2022/06/26 12:59:54;;;;;;;7.90;7.30;;;27.60;99.90;;;;;;5020091;28;20475;-68
2022/06/26 13:02:42;;;;;;;7.40;6.93;;;27.50;99.90;;;;;;5027162;28;20554;-69
2022/06/26 13:05:32;;;;;;;7.53;7.03;;;27.40;99.90;;;;;;5021495;28;20653;-68
2022/06/26 13:08:20;;;;;;;6.40;6.00;;;27.50;99.90;;;;;;5026259;28;20561;-68
2022/06/26 13:11:27;;;;;;;7.30;6.90;;;27.50;99.90;;;;;;5023640;28;20554;-68
2022/06/26 13:14:16;;;;;;;7.27;6.67;;;27.70;99.90;;;;;;5023207;28;20517;-68
2022/06/26 13:17:04;;;;;;;8.00;7.40;;;27.80;99.90;;;;;;5020510;28;21081;-68
2022/06/26 13:19:53;;;;;;;6.10;5.67;;;27.90;99.90;;;;;;5022175;28;20538;-68
2022/06/26 13:22:42;;;;;;;6.70;6.30;;;28.10;99.90;;;;;;5024957;28;20610;-68
2022/06/26 13:25:30;;;;;;;5.73;5.43;;;28.20;99.90;;;;;;5025487;28;20892;-68
2022/06/26 13:28:19;;;;;;;6.50;6.00;;;28.20;99.90;;;;;;5021068;28;20460;-68
2022/06/26 13:31:28;;;;;;;5.60;5.20;;;28.30;99.90;;;;;;5022142;28;20938;-68
2022/06/26 13:34:17;;;;;;;5.83;5.27;;;28.40;99.90;;;;;;5025448;28;20510;-68
2022/06/26 13:37:05;;;;;;;5.10;4.80;;;28.30;99.90;;;;;;5024659;28;20610;-68
2022/06/26 13:39:58;;;;;;;5.33;4.97;;;28.30;99.90;;;;;;5026627;28;20513;-68
2022/06/26 13:42:46;;;;;;;5.17;4.87;;;28.20;99.90;;;;;;5024510;28;20474;-68
2022/06/26 13:45:34;;;;;;;5.50;5.00;;;28.30;99.90;;;;;;5024269;28;20506;-68
2022/06/26 13:48:25;;;;;;;5.10;4.80;;;28.40;99.90;;;;;;5027723;28;20539;-68
2022/06/26 13:51:13;;;;;;;5.63;5.23;;;28.50;99.90;;;;;;5027346;28;20658;-68
2022/06/26 13:54:02;;;;;;;5.40;5.00;;;28.40;99.90;;;;;;5023115;28;20467;-67
2022/06/26 13:56:52;;;;;;;5.07;4.67;;;28.40;99.90;;;;;;5025610;28;20644;-68
2022/06/26 13:59:40;;;;;;;4.50;4.30;;;28.30;99.90;;;;;;5016659;28;20459;-68
2022/06/26 14:02:28;;;;;;;4.37;4.17;;;28.20;99.90;;;;;;5021420;28;21386;-68
2022/06/26 14:05:18;;;;;;;4.27;3.97;;;28.10;99.90;;;;;;5008185;28;20480;-68
2022/06/26 14:08:07;;;;;;;3.90;3.70;;;28.10;99.90;;;;;;5000273;28;20463;-68
2022/06/26 14:10:56;;;;;;;3.80;3.60;;;28.20;99.90;;;;;;5002786;28;20552;-68
2022/06/26 14:13:46;;;;;;;3.97;3.60;;;28.20;99.90;;;;;;5017383;28;21071;-68
2022/06/26 14:16:34;;;;;;;3.97;3.57;;;28.20;99.90;;;;;;5020246;28;20617;-68
2022/06/26 14:19:22;;;;;;;3.33;3.17;;;28.20;99.90;;;;;;5013187;28;20836;-68
2022/06/26 14:28:22;;;;;;;3.13;3.03;;;28.00;99.90;;;;;;5018357;28;21027;-68
2022/06/26 14:31:12;;;;;;;3.60;3.30;;;28.00;99.90;;;;;;5021595;28;20456;-68
2022/06/26 14:34:03;;;;;;;3.10;2.90;;;28.00;99.90;;;;;;5019260;28;20479;-68
2022/06/26 14:36:52;;;;;;;2.90;2.70;;;28.10;99.90;;;;;;5019091;28;20460;-68
2022/06/26 14:39:40;;;;;;;3.20;3.00;;;28.30;99.90;;;;;;5026624;28;20440;-68
2022/06/26 14:42:29;;;;;;;2.60;2.50;;;28.50;99.90;;;;;;5024799;28;20654;-68
2022/06/26 14:45:17;;;;;;;3.10;2.90;;;28.70;99.90;;;;;;5023634;28;20526;-69
2022/06/26 14:48:08;;;;;;;2.90;2.67;;;28.80;99.90;;;;;;5024035;28;20918;-68
2022/06/26 14:50:58;;;;;;;2.60;2.40;;;28.80;99.90;;;;;;5017691;28;20611;-68
2022/06/26 14:53:46;;;;;;;2.50;2.37;;;28.70;99.90;;;;;;5018211;28;20488;-68
2022/06/26 14:56:41;;;;;;;2.90;2.70;;;28.70;99.90;;;;;;5018866;28;20490;-68
2022/06/26 14:59:29;;;;;;;2.60;2.40;;;28.60;99.90;;;;;;5011701;28;20973;-68